createdAt,value
2023-04-05T00:03:30.252Z,1.55
2023-04-05T00:08:56.502Z,1.52
2023-04-05T00:14:24.435Z,1.38
2023-04-05T00:19:58.061Z,1.34
2023-04-05T00:25:22.805Z,1.68
2023-04-05T00:30:45.418Z,1.52
2023-04-05T00:36:20.140Z,1.44
2023-04-05T00:41:42.686Z,1.46
2023-04-05T00:47:07.030Z,1.54
2023-04-05T00:52:31.828Z,1.48
2023-04-05T00:57:57.425Z,1.48
2023-04-05T01:03:26.666Z,1.49
2023-04-05T01:09:12.838Z,1.69
2023-04-05T01:14:45.523Z,1.80
2023-04-05T01:20:13.651Z,1.84
2023-04-05T01:32:04.694Z,1.78
2023-04-05T01:37:31.789Z,1.66
2023-04-05T01:42:59.433Z,1.58
2023-04-05T01:48:24.166Z,1.59
2023-04-05T01:53:52.738Z,1.59
2023-04-05T01:59:18.091Z,1.55
2023-04-05T02:04:43.242Z,1.59
2023-04-05T02:10:10.193Z,1.53
2023-04-05T02:15:36.392Z,1.69
2023-04-05T02:21:07.118Z,1.61
2023-04-05T02:27:04.698Z,1.78
2023-04-05T02:32:30.973Z,1.76
2023-04-05T02:37:54.934Z,1.88
2023-04-05T02:43:20.935Z,2.00
2023-04-05T02:48:45.719Z,1.96
2023-04-05T02:54:11.876Z,2.05
2023-04-05T02:59:37.440Z,2.15
2023-04-05T03:05:04.232Z,2.20
2023-04-05T03:10:30.132Z,2.32
2023-04-05T03:15:59.058Z,2.17
2023-04-05T03:21:24.934Z,2.21
2023-04-05T03:27:00.716Z,2.24
2023-04-05T03:32:49.384Z,2.47
2023-04-05T03:48:12.394Z,2.57
2023-04-05T03:54:44.527Z,2.27
2023-04-05T04:00:15.699Z,2.32
2023-04-05T04:05:55.983Z,2.36
2023-04-05T04:11:28.446Z,2.36
2023-04-05T04:17:31.913Z,2.65
2023-04-05T04:23:15.174Z,2.58
2023-04-05T04:28:57.272Z,2.70
2023-04-05T04:34:35.642Z,2.78
2023-04-05T04:40:13.102Z,2.96
2023-04-05T04:45:55.698Z,2.84
2023-04-05T04:51:31.960Z,3.03
2023-04-05T04:56:53.779Z,3.13
2023-04-05T05:02:16.448Z,3.20
2023-04-05T05:07:43.452Z,3.26
2023-04-05T05:13:16.101Z,2.99
2023-04-05T05:30:54.933Z,3.07
2023-04-05T05:36:20.522Z,3.40
2023-04-05T05:41:42.664Z,3.12
2023-04-05T05:47:05.071Z,3.30
2023-04-05T05:52:27.500Z,3.13
2023-04-05T05:57:49.351Z,3.38
2023-04-05T06:03:11.708Z,3.25
2023-04-05T06:08:34.721Z,3.19
2023-04-05T06:13:56.678Z,3.43
2023-04-05T06:19:21.071Z,3.59
2023-04-05T06:24:44.979Z,3.55
2023-04-05T06:30:07.698Z,3.84
2023-04-05T06:35:30.617Z,3.92
2023-04-05T06:40:52.874Z,4.13
2023-04-05T06:46:15.103Z,4.08
2023-04-05T06:51:37.037Z,4.32
2023-04-05T06:57:00.811Z,4.41
2023-04-05T07:02:23.820Z,4.38
2023-04-05T07:07:46.108Z,4.30
2023-04-05T07:13:08.259Z,4.44
2023-04-05T07:18:30.624Z,4.58
2023-04-05T07:23:54.379Z,4.57
2023-04-05T07:29:16.790Z,4.70
2023-04-05T07:34:39.229Z,4.66
2023-04-05T07:40:01.767Z,4.80
2023-04-05T07:45:25.482Z,4.73
2023-04-05T07:50:53.855Z,4.90
2023-04-05T07:56:16.577Z,5.30
2023-04-05T08:01:39.134Z,5.38
2023-04-05T08:07:01.986Z,5.85
2023-04-05T08:12:24.462Z,5.92
2023-04-05T08:17:46.971Z,5.79
2023-04-05T08:23:09.157Z,5.75
2023-04-05T08:28:50.029Z,6.09
2023-04-05T08:34:18.557Z,6.18
2023-04-05T08:39:42.432Z,6.33
2023-04-05T08:45:11.483Z,6.21
2023-04-05T08:50:34.339Z,6.23
2023-04-05T08:56:02.142Z,6.43
2023-04-05T09:01:32.466Z,6.68
2023-04-05T09:13:11.035Z,7.11
2023-04-05T09:18:39.524Z,7.18
2023-04-05T09:24:02.850Z,7.34
2023-04-05T09:29:34.472Z,7.49
2023-04-05T09:35:01.913Z,7.81
2023-04-05T09:40:46.128Z,7.82
2023-04-05T09:46:34.808Z,7.79
2023-04-05T09:51:57.495Z,7.63
2023-04-05T09:57:22.525Z,8.05
2023-04-05T10:02:44.848Z,8.19
2023-04-05T10:08:07.872Z,8.40
2023-04-05T10:13:31.718Z,8.37
2023-04-05T10:18:54.157Z,8.56
2023-04-05T10:24:24.540Z,8.78
2023-04-05T10:30:09.730Z,8.90
2023-04-05T10:35:40.082Z,9.16
2023-04-05T10:41:17.136Z,9.29
2023-04-05T10:46:41.911Z,9.31
2023-04-05T10:52:05.085Z,9.52
2023-04-05T10:57:28.462Z,9.54
2023-04-05T11:02:56.619Z,9.57
2023-04-05T11:08:19.658Z,9.63
2023-04-05T11:13:59.066Z,9.77
2023-04-05T11:19:21.565Z,9.91
2023-04-05T11:25:03.579Z,9.94
2023-04-05T11:30:49.431Z,9.98
2023-04-05T11:36:13.520Z,10.13
2023-04-05T11:41:35.778Z,10.28
2023-04-05T11:46:58.198Z,10.24
2023-04-05T11:52:22.058Z,10.39
2023-04-05T11:57:44.168Z,10.26
2023-04-05T12:03:06.297Z,10.29
2023-04-05T12:08:42.626Z,10.50
2023-04-05T12:14:04.535Z,10.49
2023-04-05T12:19:31.562Z,10.34
2023-04-05T12:24:53.932Z,10.34
2023-04-05T12:30:21.466Z,10.19
2023-04-05T12:35:43.778Z,10.18
2023-04-05T12:41:06.351Z,10.25
2023-04-05T12:46:42.756Z,10.30
2023-04-05T12:52:05.134Z,10.21
2023-04-05T12:57:33.964Z,10.25
2023-04-05T13:02:58.202Z,10.23
2023-04-05T13:08:20.589Z,10.23
2023-04-05T13:13:42.779Z,10.16
2023-04-05T13:19:05.011Z,10.18
2023-04-05T13:24:27.485Z,10.09
2023-04-05T13:29:51.893Z,9.96
2023-04-05T13:35:41.356Z,10.14
2023-04-05T13:41:03.899Z,10.03
2023-04-05T13:46:46.226Z,10.02
2023-04-05T13:52:13.357Z,9.95
2023-04-05T13:57:49.854Z,9.89
2023-04-05T14:03:15.443Z,9.81
2023-04-05T14:08:38.297Z,9.73
2023-04-05T14:14:10.910Z,9.75
2023-04-05T14:19:59.585Z,9.69
2023-04-05T14:25:27.292Z,9.42
2023-04-05T14:30:50.587Z,9.36
2023-04-05T14:36:12.457Z,9.25
2023-04-05T14:41:35.579Z,9.14
2023-04-05T14:46:57.680Z,8.85
2023-04-05T14:52:19.835Z,8.80
2023-04-05T14:57:42.673Z,8.70
2023-04-05T15:03:05.195Z,8.57
2023-04-05T15:08:27.315Z,8.33
2023-04-05T15:13:49.337Z,8.17
2023-04-05T15:19:11.821Z,8.02
2023-04-05T15:24:34.588Z,7.77
2023-04-05T15:36:43.524Z,7.34
2023-04-05T15:42:07.304Z,7.24
2023-04-05T15:47:30.173Z,7.01
2023-04-05T15:59:20.235Z,6.78
2023-04-05T16:04:53.335Z,6.57
2023-04-05T16:10:45.499Z,6.66
2023-04-05T16:16:27.615Z,6.57
2023-04-05T16:22:25.175Z,6.31
2023-04-05T16:27:50.424Z,6.22
2023-04-05T16:33:12.829Z,5.98
2023-04-05T16:38:34.769Z,5.87
2023-04-05T16:43:59.082Z,5.80
2023-04-05T16:49:21.086Z,5.77
2023-04-05T16:54:45.236Z,5.64
2023-04-05T17:00:07.594Z,5.65
2023-04-05T17:17:17.094Z,5.47
2023-04-05T17:22:40.877Z,5.30
2023-04-05T17:28:08.336Z,5.27
2023-04-05T17:33:40.256Z,4.99
2023-04-05T17:39:05.357Z,5.11
2023-04-05T17:44:31.213Z,4.93
2023-04-05T17:49:53.829Z,4.95
2023-04-05T17:55:16.657Z,4.67
2023-04-05T18:00:40.992Z,4.55
2023-04-05T18:06:03.819Z,4.41
2023-04-05T18:11:26.261Z,4.44
2023-04-05T18:16:48.554Z,4.28
2023-04-05T18:22:11.228Z,4.16
2023-04-05T18:27:34.967Z,3.91
2023-04-05T18:32:56.827Z,3.89
2023-04-05T18:38:20.564Z,3.67
2023-04-05T18:43:43.239Z,3.66
2023-04-05T18:49:06.256Z,3.55
2023-04-05T18:54:28.877Z,3.65
2023-04-05T18:59:51.186Z,3.55
2023-04-05T19:05:13.019Z,3.22
2023-04-05T19:10:34.942Z,3.25
2023-04-05T19:15:57.378Z,3.14
2023-04-05T19:21:19.100Z,3.04
2023-04-05T19:26:44.000Z,3.09
2023-04-05T19:32:06.265Z,2.96
2023-04-05T19:37:29.464Z,2.92
2023-04-05T19:42:52.916Z,2.79
2023-04-05T19:48:54.666Z,2.75
2023-04-05T19:54:20.874Z,2.60
2023-04-05T19:59:43.163Z,2.52
2023-04-05T20:05:14.337Z,2.44
2023-04-05T20:10:43.258Z,2.23
2023-04-05T20:16:07.613Z,2.20
2023-04-05T20:21:29.555Z,2.15
2023-04-05T20:26:54.520Z,2.08
2023-04-05T20:32:15.582Z,2.02
2023-04-05T20:37:37.791Z,2.01
2023-04-05T20:42:59.586Z,1.94
2023-04-05T20:48:21.791Z,1.99
2023-04-05T20:53:43.962Z,1.89
2023-04-05T20:59:06.731Z,1.97
2023-04-05T21:04:30.088Z,1.93
2023-04-05T21:09:52.303Z,1.85
2023-04-05T21:15:14.743Z,1.91
2023-04-05T21:20:37.502Z,2.01
2023-04-05T21:25:59.268Z,1.98
2023-04-05T21:31:22.673Z,1.95
2023-04-05T21:36:44.527Z,2.08
2023-04-05T21:42:06.734Z,2.06
2023-04-05T21:47:29.086Z,2.10
2023-04-05T21:52:51.098Z,2.10
2023-04-05T21:58:13.140Z,2.29
2023-04-05T22:03:35.492Z,2.27
2023-04-05T22:08:57.438Z,2.33
2023-04-05T22:14:19.389Z,2.41
2023-04-05T22:19:44.404Z,2.44
2023-04-05T22:25:07.448Z,2.60
2023-04-05T22:30:40.998Z,2.63
2023-04-05T22:36:06.426Z,2.47
2023-04-05T22:41:28.573Z,2.43
2023-04-05T22:46:50.765Z,2.39
2023-04-05T22:52:13.322Z,2.58
2023-04-05T22:57:37.783Z,2.51
2023-04-05T23:03:00.049Z,2.52
2023-04-05T23:08:22.840Z,2.36
2023-04-05T23:13:45.211Z,2.36
2023-04-05T23:19:07.472Z,2.47
2023-04-05T23:24:29.612Z,2.38
2023-04-05T23:29:52.005Z,2.18
2023-04-05T23:35:14.512Z,2.20
2023-04-05T23:40:36.944Z,2.16
2023-04-05T23:45:59.167Z,2.10
2023-04-05T23:51:21.577Z,2.02
2023-04-05T23:56:44.071Z,2.01
